Time;durP1;ratioP1;P1;durP2;ratioP2;P2;SDS_P1;SDS_P2;PMS_P1;PMS_P2;Temp;Humidity;BMP_temperature;BMP_pressure;BME280_temperature;BME280_humidity;BME280_pressure;Samples;Min_cycle;Max_cycle;Signal;HPM_P1;HPM_P2
2023/10/25 00:00:01;;;;;;;2.42;0.63;;;16.80;35.50;;;;;;7397031;19;19914;-73
2023/10/25 00:02:27;;;;;;;1.95;0.45;;;16.70;35.80;;;;;;7399020;19;20235;-75
2023/10/25 00:04:56;;;;;;;4.80;1.20;;;16.70;35.80;;;;;;7399341;19;20351;-73
2023/10/25 00:07:22;;;;;;;3.38;0.50;;;16.70;36.20;;;;;;7395920;19;20267;-75
2023/10/25 00:09:48;;;;;;;2.80;0.52;;;16.80;36.40;;;;;;7398305;19;20022;-73
2023/10/25 00:12:14;;;;;;;3.55;0.60;;;16.70;36.30;;;;;;7400351;19;20331;-74
2023/10/25 00:14:41;;;;;;;2.85;0.60;;;16.70;36.70;;;;;;7401487;19;19914;-74
2023/10/25 00:17:06;;;;;;;;;;;16.70;36.90;;;;;;7400474;19;19915;-73
2023/10/25 00:19:32;;;;;;;2.47;0.70;;;16.70;36.90;;;;;;7402039;19;19918;-74
2023/10/25 00:21:59;;;;;;;2.00;0.60;;;16.70;37.20;;;;;;7400797;19;19918;-75
2023/10/25 00:24:25;;;;;;;1.75;0.60;;;16.70;37.50;;;;;;7397625;19;19931;-74
2023/10/25 00:26:50;;;;;;;3.10;0.70;;;16.60;37.60;;;;;;7394894;19;20531;-74
2023/10/25 00:29:16;;;;;;;2.83;1.05;;;16.60;37.90;;;;;;7396280;19;19963;-74
2023/10/25 00:31:43;;;;;;;3.75;0.80;;;16.60;38.20;;;;;;7399337;19;19918;-74
2023/10/25 00:34:09;;;;;;;1.70;0.47;;;16.60;38.50;;;;;;7396139;19;20652;-74
2023/10/25 00:36:35;;;;;;;4.22;0.60;;;16.50;39.10;;;;;;7398198;19;19922;-74
2023/10/25 00:39:02;;;;;;;3.25;0.50;;;16.50;39.70;;;;;;7399886;19;19914;-74
2023/10/25 00:41:28;;;;;;;2.97;0.80;;;16.50;39.90;;;;;;7396889;19;19974;-74
2023/10/25 00:43:54;;;;;;;2.05;0.52;;;16.50;40.90;;;;;;7400556;19;19928;-73
2023/10/25 00:46:23;;;;;;;2.75;0.52;;;16.50;41.10;;;;;;7398895;19;20635;-73
2023/10/25 00:48:52;;;;;;;2.80;0.50;;;16.50;41.90;;;;;;7400866;19;20334;-73
2023/10/25 00:51:21;;;;;;;3.53;0.50;;;16.50;42.10;;;;;;7395735;19;19926;-74
2023/10/25 00:53:51;;;;;;;2.78;0.50;;;16.50;43.00;;;;;;7397774;19;20016;-74
2023/10/25 00:56:17;;;;;;;1.83;0.63;;;16.50;43.50;;;;;;7392823;19;19946;-74
2023/10/25 00:58:45;;;;;;;1.25;0.45;;;16.60;43.70;;;;;;7395138;19;20338;-73
2023/10/25 01:01:14;;;;;;;5.05;0.80;;;16.60;43.90;;;;;;7396510;19;19922;-73
2023/10/25 01:03:40;;;;;;;2.17;0.50;;;16.60;44.20;;;;;;7399183;19;20230;-73
2023/10/25 01:06:06;;;;;;;2.38;0.70;;;16.60;44.80;;;;;;7398125;19;19918;-73
2023/10/25 01:08:32;;;;;;;1.63;0.45;;;16.50;45.50;;;;;;7399417;19;20334;-72
2023/10/25 01:10:59;;;;;;;1.73;0.50;;;16.50;46.00;;;;;;7398515;19;19915;-72
2023/10/25 01:13:24;;;;;;;2.05;0.55;;;16.50;46.50;;;;;;7399158;19;19913;-73
2023/10/25 01:15:50;;;;;;;1.55;0.50;;;16.50;47.00;;;;;;7400600;19;19978;-73
2023/10/25 01:18:16;;;;;;;2.17;0.60;;;16.50;47.30;;;;;;7400739;19;19910;-73
2023/10/25 01:20:43;;;;;;;2.50;0.50;;;16.40;48.60;;;;;;7405741;19;19934;-74
2023/10/25 01:23:09;;;;;;;1.55;0.50;;;16.40;48.70;;;;;;7402571;19;19924;-74
2023/10/25 01:25:36;;;;;;;2.15;0.60;;;16.40;49.60;;;;;;7383301;19;19918;-73
2023/10/25 01:28:01;;;;;;;1.60;0.50;;;16.40;49.90;;;;;;7403509;19;19910;-73
2023/10/25 01:30:27;;;;;;;3.42;0.68;;;16.40;50.50;;;;;;7397778;19;19910;-72
2023/10/25 01:32:53;;;;;;;2.38;0.50;;;16.40;51.00;;;;;;7384274;19;19915;-73
2023/10/25 01:35:20;;;;;;;2.50;0.60;;;16.30;51.70;;;;;;7404026;19;19922;-73
2023/10/25 01:37:48;;;;;;;1.80;0.40;;;16.20;52.60;;;;;;7404389;19;19914;-74
2023/10/25 01:40:15;;;;;;;1.23;0.40;;;16.20;53.60;;;;;;7400690;19;19943;-73
2023/10/25 01:42:41;;;;;;;1.77;0.50;;;16.30;54.80;;;;;;7405878;19;20343;-74
2023/10/25 01:45:07;;;;;;;1.70;0.43;;;16.30;56.20;;;;;;7403534;19;19923;-74
2023/10/25 01:47:32;;;;;;;3.13;0.50;;;16.40;57.00;;;;;;7405376;19;19906;-73
2023/10/25 01:49:58;;;;;;;1.65;0.40;;;16.30;57.60;;;;;;7405377;19;19925;-72
2023/10/25 01:52:24;;;;;;;2.05;0.50;;;16.20;58.00;;;;;;7403511;19;19918;-74
2023/10/25 01:54:52;;;;;;;2.85;0.77;;;16.20;58.50;;;;;;7405296;19;19934;-71
2023/10/25 01:57:18;;;;;;;2.22;0.57;;;16.10;59.10;;;;;;7402991;19;19914;-72
2023/10/25 01:59:44;;;;;;;1.33;0.40;;;16.00;59.90;;;;;;7402363;19;19946;-72
2023/10/25 02:02:11;;;;;;;1.40;0.40;;;16.10;59.90;;;;;;7399870;19;19926;-73
2023/10/25 02:04:37;;;;;;;1.90;0.50;;;16.00;60.60;;;;;;7405862;19;20427;-72
2023/10/25 02:07:03;;;;;;;2.72;0.40;;;15.90;61.60;;;;;;7403714;19;19943;-73
2023/10/25 02:09:29;;;;;;;2.80;0.40;;;15.90;62.70;;;;;;7400994;19;19915;-71
2023/10/25 02:11:55;;;;;;;1.88;0.60;;;15.80;63.30;;;;;;7403062;19;19934;-72
2023/10/25 02:14:21;;;;;;;1.67;0.40;;;15.80;64.70;;;;;;7403390;19;20239;-71
2023/10/25 02:16:47;;;;;;;1.58;0.40;;;15.80;65.50;;;;;;7404865;19;19921;-71
2023/10/25 02:19:14;;;;;;;2.58;0.65;;;15.80;66.60;;;;;;7401327;19;20246;-71
2023/10/25 02:21:39;;;;;;;2.85;0.52;;;15.80;67.30;;;;;;7405908;19;19922;-71
2023/10/25 02:24:05;;;;;;;1.42;0.40;;;15.90;67.40;;;;;;7400776;19;19911;-71
2023/10/25 02:26:32;;;;;;;1.27;0.30;;;15.90;67.70;;;;;;7404040;19;19930;-71
2023/10/25 02:28:59;;;;;;;2.22;0.50;;;16.00;68.00;;;;;;7404648;19;20006;-71
2023/10/25 02:31:25;;;;;;;3.80;0.45;;;16.00;67.90;;;;;;7399722;19;20327;-71
2023/10/25 02:33:50;;;;;;;0.93;0.40;;;16.00;67.70;;;;;;7403447;19;19918;-71
2023/10/25 02:36:16;;;;;;;2.58;0.60;;;16.10;67.90;;;;;;7402489;19;19922;-72
2023/10/25 02:38:42;;;;;;;3.38;0.45;;;16.00;68.50;;;;;;7404586;19;19918;-72
2023/10/25 02:41:08;;;;;;;3.40;0.45;;;16.00;68.80;;;;;;7401084;19;19923;-71
2023/10/25 02:43:34;;;;;;;2.15;0.57;;;16.10;68.70;;;;;;7405134;19;19933;-72
2023/10/25 02:46:08;;;;;;;2.22;0.52;;;16.10;68.40;;;;;;7405610;19;19926;-71
2023/10/25 02:48:36;;;;;;;2.50;0.50;;;16.10;69.10;;;;;;7402033;19;19938;-71
2023/10/25 02:51:03;;;;;;;2.50;0.38;;;16.00;69.20;;;;;;7400663;19;19922;-71
2023/10/25 02:53:29;;;;;;;1.95;0.63;;;16.00;69.60;;;;;;7402493;19;19922;-71
2023/10/25 02:55:59;;;;;;;2.63;0.75;;;15.90;69.80;;;;;;7403996;19;19927;-71
2023/10/25 02:58:25;;;;;;;1.10;0.35;;;15.90;70.50;;;;;;7402964;19;19930;-71
2023/10/25 03:00:51;;;;;;;2.70;0.60;;;15.90;71.00;;;;;;7400987;19;19914;-71
2023/10/25 03:03:17;;;;;;;5.00;0.68;;;15.80;72.00;;;;;;7401827;19;19907;-71
2023/10/25 03:05:42;;;;;;;2.33;0.70;;;15.90;71.30;;;;;;7404126;19;19926;-72
2023/10/25 03:08:08;;;;;;;0.73;0.20;;;15.90;71.70;;;;;;7402080;19;20287;-72
2023/10/25 03:10:34;;;;;;;0.93;0.30;;;15.80;71.00;;;;;;7404147;19;19926;-71
2023/10/25 03:13:00;;;;;;;4.75;1.00;;;15.90;70.60;;;;;;7403870;19;19918;-72
2023/10/25 03:15:26;;;;;;;1.92;0.52;;;16.00;70.20;;;;;;7400099;19;20247;-72
2023/10/25 03:17:52;;;;;;;2.45;0.40;;;15.90;70.20;;;;;;7401326;19;19925;-72
2023/10/25 03:20:17;;;;;;;3.42;0.32;;;16.00;69.60;;;;;;7399627;19;19957;-71
2023/10/25 03:22:43;;;;;;;1.75;0.38;;;16.00;69.10;;;;;;7399109;19;19922;-72
2023/10/25 03:25:09;;;;;;;2.33;0.50;;;16.00;69.30;;;;;;7403503;19;20275;-72
2023/10/25 03:27:35;;;;;;;2.53;0.50;;;15.90;69.60;;;;;;7402969;19;19923;-72
2023/10/25 03:30:03;;;;;;;3.13;0.47;;;15.90;69.60;;;;;;7400538;19;19914;-71
2023/10/25 03:32:28;;;;;;;1.83;0.30;;;15.90;69.70;;;;;;7402904;19;19974;-71
2023/10/25 03:34:54;;;;;;;2.72;0.50;;;15.90;70.80;;;;;;7403367;19;19926;-71
2023/10/25 03:37:20;;;;;;;2.05;0.40;;;15.80;71.50;;;;;;7402282;19;19915;-71
2023/10/25 03:39:45;;;;;;;1.90;0.40;;;15.80;72.00;;;;;;7398057;19;19922;-71
2023/10/25 03:42:11;;;;;;;1.35;0.50;;;15.70;72.30;;;;;;7398969;19;19915;-72
2023/10/25 03:44:37;;;;;;;2.80;0.43;;;15.70;72.70;;;;;;7402878;19;19925;-72
2023/10/25 03:47:03;;;;;;;1.30;0.57;;;15.60;73.00;;;;;;7400710;19;19911;-71
2023/10/25 03:49:29;;;;;;;1.95;0.25;;;15.70;72.60;;;;;;7403516;19;19923;-71
2023/10/25 03:51:58;;;;;;;1.83;0.30;;;15.60;73.30;;;;;;7402566;19;20628;-72
2023/10/25 03:54:24;;;;;;;1.08;0.45;;;15.60;73.60;;;;;;7403172;19;19931;-71
2023/10/25 03:56:50;;;;;;;1.65;0.40;;;15.70;73.00;;;;;;7404407;19;19981;-72
2023/10/25 03:59:15;;;;;;;1.25;0.40;;;15.70;72.50;;;;;;7395183;19;19946;-71
2023/10/25 04:01:42;;;;;;;2.40;0.40;;;15.90;71.70;;;;;;7402545;19;19954;-72
2023/10/25 04:04:09;;;;;;;2.08;0.60;;;15.90;71.40;;;;;;7402058;19;19926;-71
2023/10/25 04:06:35;;;;;;;2.00;0.40;;;16.00;70.50;;;;;;7402068;19;19922;-71
2023/10/25 04:09:02;;;;;;;1.60;0.28;;;16.00;70.10;;;;;;7402486;19;19910;-72
2023/10/25 04:11:28;;;;;;;2.67;0.50;;;16.10;69.40;;;;;;7402742;19;20319;-71
2023/10/25 04:13:54;;;;;;;0.80;0.25;;;16.20;68.90;;;;;;7401694;19;19917;-71
2023/10/25 04:16:20;;;;;;;1.42;0.40;;;16.20;68.30;;;;;;7402792;19;19914;-71
2023/10/25 04:18:45;;;;;;;1.58;0.32;;;16.10;68.20;;;;;;7400920;19;19907;-72
2023/10/25 04:21:12;;;;;;;1.48;0.38;;;16.20;68.50;;;;;;7397923;19;19926;-71
2023/10/25 04:23:38;;;;;;;;;;;16.20;68.20;;;;;;7405015;19;19929;-72
2023/10/25 04:26:09;;;;;;;1.73;0.60;;;16.20;68.70;;;;;;7397484;19;20328;-71
2023/10/25 04:28:36;;;;;;;2.63;0.60;;;16.30;68.30;;;;;;7400893;19;20553;-71
2023/10/25 04:31:01;;;;;;;;;;;16.20;68.60;;;;;;7403325;19;19923;-71
2023/10/25 04:33:27;;;;;;;1.90;0.32;;;16.20;68.50;;;;;;7397716;19;19919;-71
2023/10/25 04:35:53;;;;;;;1.23;0.28;;;16.30;68.20;;;;;;7397492;19;19944;-72
2023/10/25 04:38:19;;;;;;;3.03;0.50;;;16.20;68.70;;;;;;7397927;19;20380;-72
2023/10/25 04:40:45;;;;;;;2.58;0.50;;;16.30;68.20;;;;;;7398704;19;19915;-71
2023/10/25 04:43:11;;;;;;;2.20;0.52;;;16.40;67.80;;;;;;7399154;19;20323;-72
2023/10/25 04:45:37;;;;;;;1.60;0.30;;;16.50;67.50;;;;;;7394864;19;19911;-70
2023/10/25 04:48:03;;;;;;;2.35;0.50;;;16.50;66.60;;;;;;7397980;19;19911;-73
2023/10/25 04:50:35;;;;;;;2.47;0.57;;;16.60;66.00;;;;;;7400370;19;19915;-73
2023/10/25 04:53:04;;;;;;;0.32;0.10;;;16.60;66.20;;;;;;7405637;19;20359;-72
2023/10/25 04:55:31;;;;;;;4.00;0.73;;;16.70;65.90;;;;;;7405506;19;20262;-72
2023/10/25 04:57:58;;;;;;;0.57;0.20;;;16.70;65.70;;;;;;7406217;19;19922;-72
2023/10/25 05:00:24;;;;;;;2.83;0.50;;;16.70;65.60;;;;;;7405458;19;19932;-72
2023/10/25 05:02:50;;;;;;;6.07;0.85;;;16.80;65.50;;;;;;7405422;19;19947;-71
2023/10/25 05:05:16;;;;;;;1.17;0.32;;;16.80;65.00;;;;;;7402858;19;19944;-72
2023/10/25 05:07:42;;;;;;;2.58;0.68;;;16.80;65.00;;;;;;7406384;19;19919;-71
2023/10/25 05:10:09;;;;;;;1.42;0.55;;;16.80;65.10;;;;;;7403319;19;20397;-72
2023/10/25 05:12:38;;;;;;;2.28;0.55;;;16.80;65.00;;;;;;7404368;19;19926;-71
2023/10/25 05:15:09;;;;;;;1.00;0.35;;;16.90;65.10;;;;;;7403985;19;19932;-71
2023/10/25 05:17:35;;;;;;;1.30;0.43;;;16.90;65.50;;;;;;7407446;19;19930;-72
2023/10/25 05:20:05;;;;;;;1.42;0.30;;;16.90;65.40;;;;;;7403934;19;20040;-73
2023/10/25 05:22:34;;;;;;;2.30;0.32;;;16.90;65.20;;;;;;7402806;19;20375;-73
2023/10/25 05:25:00;;;;;;;1.70;0.30;;;17.00;64.50;;;;;;7400122;19;19935;-73
2023/10/25 05:27:26;;;;;;;1.67;0.40;;;17.00;64.50;;;;;;7397027;19;19919;-72
2023/10/25 05:29:52;;;;;;;1.33;0.30;;;17.00;64.30;;;;;;7386516;19;20054;-72
2023/10/25 05:32:21;;;;;;;1.30;0.30;;;17.00;64.50;;;;;;7396818;19;20429;-72
2023/10/25 05:34:48;;;;;;;1.02;0.22;;;17.00;64.90;;;;;;7396424;19;20481;-72
2023/10/25 05:37:15;;;;;;;1.63;0.32;;;17.00;65.00;;;;;;7391916;19;20339;-73
2023/10/25 05:39:42;;;;;;;3.92;0.80;;;17.00;65.20;;;;;;7401318;19;20342;-72
2023/10/25 05:42:12;;;;;;;2.10;0.60;;;17.00;65.50;;;;;;7403479;19;19918;-72
2023/10/25 05:44:38;;;;;;;1.58;0.43;;;17.00;65.40;;;;;;7400588;19;19939;-71
2023/10/25 05:47:04;;;;;;;1.48;0.32;;;17.00;65.60;;;;;;7393849;19;19931;-72
2023/10/25 05:49:30;;;;;;;4.82;0.70;;;17.10;65.30;;;;;;7397613;19;19915;-73
2023/10/25 05:51:56;;;;;;;3.20;0.32;;;17.10;65.40;;;;;;7399308;19;20361;-71
2023/10/25 05:54:22;;;;;;;1.95;0.40;;;17.10;65.50;;;;;;7402436;19;19943;-72
2023/10/25 05:56:48;;;;;;;2.30;0.35;;;17.00;65.50;;;;;;7398311;19;19930;-71
2023/10/25 05:59:14;;;;;;;1.33;0.40;;;17.10;66.00;;;;;;7388744;19;19943;-72
2023/10/25 06:01:50;;;;;;;2.60;0.52;;;17.00;66.10;;;;;;7396472;19;20032;-74
2023/10/25 06:04:18;;;;;;;2.28;0.40;;;17.00;66.80;;;;;;7400294;19;19919;-72
2023/10/25 06:06:45;;;;;;;0.75;0.30;;;17.00;67.20;;;;;;7399821;19;20344;-73
2023/10/25 06:09:14;;;;;;;1.17;0.40;;;17.00;67.50;;;;;;7402657;19;20399;-71
2023/10/25 06:11:41;;;;;;;2.00;0.40;;;16.90;68.10;;;;;;7398454;19;19910;-72
2023/10/25 06:14:06;;;;;;;;;;;16.90;68.40;;;;;;7408091;19;19915;-72
2023/10/25 06:16:32;;;;;;;1.30;0.38;;;16.90;69.00;;;;;;7395024;19;19925;-71
2023/10/25 06:18:58;;;;;;;2.35;0.35;;;16.80;70.00;;;;;;7400390;19;19990;-72
2023/10/25 06:21:24;;;;;;;1.67;0.52;;;16.80;70.50;;;;;;7399742;19;19939;-71
2023/10/25 06:23:56;;;;;;;1.65;0.32;;;16.80;71.10;;;;;;7390491;19;19915;-72
2023/10/25 06:26:22;;;;;;;1.17;0.30;;;16.80;72.20;;;;;;7391996;19;21665;-72
2023/10/25 06:28:48;;;;;;;1.25;0.30;;;16.70;72.90;;;;;;7402496;19;19942;-72
2023/10/25 06:31:14;;;;;;;1.35;0.50;;;16.70;73.80;;;;;;7400670;19;19926;-72
2023/10/25 06:33:43;;;;;;;2.13;0.50;;;16.70;74.20;;;;;;7403691;19;19922;-72
2023/10/25 06:36:10;;;;;;;1.33;0.35;;;16.70;74.40;;;;;;7401435;19;19919;-72
2023/10/25 06:38:36;;;;;;;2.35;0.60;;;16.70;75.30;;;;;;7405070;19;19926;-72
2023/10/25 06:41:03;;;;;;;1.92;0.50;;;16.60;76.00;;;;;;7403840;19;19918;-71
2023/10/25 06:43:30;;;;;;;2.15;0.40;;;16.50;77.10;;;;;;7403411;19;19919;-71
2023/10/25 06:45:57;;;;;;;4.07;0.50;;;16.50;76.70;;;;;;7402259;19;19922;-72
2023/10/25 06:48:23;;;;;;;2.05;0.70;;;16.50;78.10;;;;;;7400984;19;20659;-72
2023/10/25 06:50:50;;;;;;;2.83;0.70;;;16.50;77.90;;;;;;7404316;19;19925;-72
2023/10/25 06:53:17;;;;;;;1.85;0.43;;;16.50;78.00;;;;;;7402301;19;20319;-73
2023/10/25 06:55:43;;;;;;;4.55;0.60;;;16.60;78.20;;;;;;7402309;19;19931;-71
2023/10/25 06:58:10;;;;;;;2.28;0.47;;;16.60;78.50;;;;;;7398098;19;20381;-72
2023/10/25 07:00:38;;;;;;;2.15;0.50;;;16.60;78.30;;;;;;7402808;19;19955;-72
2023/10/25 07:03:04;;;;;;;2.17;0.98;;;16.70;78.60;;;;;;7402864;19;19921;-72
2023/10/25 07:05:30;;;;;;;6.45;0.80;;;16.70;78.60;;;;;;7402625;19;19919;-73
2023/10/25 07:07:57;;;;;;;2.58;0.55;;;16.70;78.50;;;;;;7404799;19;19914;-71
2023/10/25 07:10:23;;;;;;;2.13;0.50;;;16.80;79.00;;;;;;7404059;19;19943;-73
2023/10/25 07:12:50;;;;;;;2.20;0.30;;;16.80;78.50;;;;;;7403076;19;19915;-72
2023/10/25 07:15:18;;;;;;;3.08;0.60;;;16.80;78.30;;;;;;7401227;19;19923;-72
2023/10/25 07:17:49;;;;;;;5.22;0.73;;;16.80;78.20;;;;;;7405189;19;19929;-72
2023/10/25 07:20:15;;;;;;;2.50;0.63;;;16.80;78.30;;;;;;7403105;19;19946;-72
2023/10/25 07:22:42;;;;;;;4.07;0.70;;;16.90;78.10;;;;;;7404855;19;20011;-72
2023/10/25 07:25:08;;;;;;;1.95;0.50;;;16.90;78.10;;;;;;7400923;19;20399;-72
2023/10/25 07:27:37;;;;;;;9.27;0.75;;;16.90;78.30;;;;;;7401419;19;20255;-71
2023/10/25 07:30:04;;;;;;;2.15;0.40;;;16.90;78.70;;;;;;7397024;19;19983;-72
2023/10/25 07:32:31;;;;;;;2.70;0.50;;;16.90;78.40;;;;;;7406242;19;19939;-73
2023/10/25 07:34:57;;;;;;;1.08;0.40;;;16.90;78.40;;;;;;7401436;19;19919;-72
2023/10/25 07:37:23;;;;;;;2.05;0.50;;;17.00;78.70;;;;;;7403467;19;20352;-72
2023/10/25 07:39:49;;;;;;;3.17;0.60;;;17.00;78.90;;;;;;7400676;19;19922;-72
2023/10/25 07:42:15;;;;;;;1.63;0.32;;;17.00;78.80;;;;;;7402316;19;19918;-73
2023/10/25 07:44:40;;;;;;;4.68;0.65;;;17.00;79.10;;;;;;7403605;19;19974;-72
2023/10/25 07:47:06;;;;;;;1.05;0.38;;;17.10;79.30;;;;;;7405079;19;20279;-72
2023/10/25 07:49:35;;;;;;;3.20;0.50;;;17.10;79.30;;;;;;7383195;19;20359;-72
2023/10/25 07:52:02;;;;;;;4.65;0.57;;;17.20;79.40;;;;;;7403323;19;19922;-72
2023/10/25 07:54:28;;;;;;;4.20;0.60;;;17.20;79.30;;;;;;7404984;19;19931;-71
2023/10/25 07:56:54;;;;;;;2.10;0.60;;;17.20;79.20;;;;;;7385554;19;19921;-73
2023/10/25 07:59:20;;;;;;;1.40;0.38;;;17.20;79.00;;;;;;7402816;19;19956;-72
2023/10/25 08:01:46;;;;;;;2.58;0.50;;;17.20;79.00;;;;;;7402424;19;20220;-72
2023/10/25 08:04:13;;;;;;;2.78;0.55;;;17.30;79.30;;;;;;7404223;19;19922;-72
2023/10/25 08:06:39;;;;;;;3.50;0.60;;;17.30;79.20;;;;;;7402544;19;19924;-72
2023/10/25 08:09:05;;;;;;;2.88;0.63;;;18.00;77.40;;;;;;7401318;19;19918;-72
2023/10/25 08:11:36;;;;;;;3.35;0.73;;;19.40;66.60;;;;;;7405306;19;19951;-72
2023/10/25 08:14:02;;;;;;;4.15;0.90;;;20.40;60.70;;;;;;7399195;19;19927;-72
2023/10/25 08:16:28;;;;;;;3.13;0.93;;;20.60;56.30;;;;;;7402237;19;20026;-72
2023/10/25 08:18:54;;;;;;;3.13;0.88;;;20.60;55.10;;;;;;7402694;19;19990;-73
2023/10/25 08:21:20;;;;;;;2.38;0.68;;;20.90;54.60;;;;;;7402774;19;20367;-73
2023/10/25 08:23:51;;;;;;;2.65;0.70;;;21.50;50.50;;;;;;7400093;19;19923;-73
2023/10/25 08:26:17;;;;;;;1.33;0.73;;;21.40;48.10;;;;;;7397707;19;19925;-73
2023/10/25 08:28:44;;;;;;;1.95;0.77;;;21.30;48.20;;;;;;7402779;19;19944;-72
2023/10/25 08:31:12;;;;;;;3.38;0.80;;;21.80;45.90;;;;;;7402786;19;19922;-73
2023/10/25 08:33:37;;;;;;;2.25;0.95;;;22.00;46.30;;;;;;7401739;19;19919;-73
2023/10/25 08:36:04;;;;;;;2.40;0.90;;;21.80;46.60;;;;;;7399206;19;19930;-71
2023/10/25 08:38:30;;;;;;;1.98;0.90;;;21.90;46.80;;;;;;7400517;19;19910;-73
2023/10/25 08:41:06;;;;;;;4.30;0.80;;;21.80;46.20;;;;;;7400809;19;20421;-72
2023/10/25 08:43:38;;;;;;;1.88;0.82;;;22.10;46.30;;;;;;7400729;19;19917;-72
2023/10/25 08:46:05;;;;;;;2.08;0.65;;;21.20;47.90;;;;;;7399907;19;19937;-71
2023/10/25 08:48:34;;;;;;;2.88;1.05;;;21.80;47.40;;;;;;7400004;19;19931;-72
2023/10/25 08:51:01;;;;;;;1.98;1.08;;;21.50;47.50;;;;;;7399026;19;20390;-73
2023/10/25 08:53:27;;;;;;;;;;;21.80;47.40;;;;;;7400591;19;19923;-72
2023/10/25 08:55:54;;;;;;;1.42;0.70;;;21.50;47.40;;;;;;7401586;19;19922;-73
2023/10/25 08:58:24;;;;;;;1.83;0.70;;;21.40;48.00;;;;;;7399290;19;20238;-72
2023/10/25 09:00:51;;;;;;;1.77;0.52;;;21.10;47.90;;;;;;7400347;19;20467;-72
2023/10/25 09:03:32;;;;;;;1.27;0.52;;;21.60;48.10;;;;;;7375615;19;19941;-72
2023/10/25 09:05:59;;;;;;;2.08;0.55;;;21.40;48.40;;;;;;7400187;19;19919;-72
2023/10/25 09:08:25;;;;;;;3.92;0.80;;;20.80;49.60;;;;;;7398188;19;20017;-72
2023/10/25 09:11:00;;;;;;;2.15;0.55;;;20.40;52.00;;;;;;7400558;19;20331;-73
2023/10/25 09:13:26;;;;;;;2.05;0.50;;;20.30;52.80;;;;;;7397966;19;20236;-73
2023/10/25 09:15:52;;;;;;;2.35;0.60;;;20.20;53.00;;;;;;7398169;19;19919;-71
2023/10/25 09:18:18;;;;;;;3.00;0.75;;;20.20;53.90;;;;;;7399857;19;19927;-73
2023/10/25 09:20:50;;;;;;;1.73;0.60;;;20.20;54.70;;;;;;7399734;19;19994;-72
2023/10/25 09:23:16;;;;;;;6.05;0.60;;;20.20;55.10;;;;;;7396130;19;19911;-71
2023/10/25 09:25:43;;;;;;;1.63;0.52;;;20.30;54.90;;;;;;7399791;19;19915;-71
2023/10/25 09:28:22;;;;;;;1.50;0.50;;;20.10;55.00;;;;;;7396721;19;20250;-72
2023/10/25 09:30:48;;;;;;;3.10;0.65;;;20.40;54.30;;;;;;7378338;19;20411;-72
2023/10/25 09:33:14;;;;;;;1.90;0.52;;;20.50;53.50;;;;;;7394409;19;19918;-72
2023/10/25 09:35:42;;;;;;;2.70;0.75;;;20.80;52.20;;;;;;7398852;19;20037;-72
2023/10/25 09:38:08;;;;;;;2.60;0.68;;;20.80;52.60;;;;;;7402010;19;19919;-72
2023/10/25 09:40:37;;;;;;;2.47;0.60;;;20.90;51.40;;;;;;7405131;19;19949;-73
2023/10/25 09:43:10;;;;;;;3.53;0.65;;;21.30;49.60;;;;;;7380898;19;20026;-74
2023/10/25 09:45:36;;;;;;;3.88;1.00;;;21.50;48.70;;;;;;7404121;19;19918;-72
2023/10/25 09:48:07;;;;;;;3.25;0.65;;;21.50;48.50;;;;;;7405263;19;19926;-72
2023/10/25 09:50:37;;;;;;;1.33;0.65;;;21.70;47.60;;;;;;7406273;19;19923;-72
2023/10/25 09:53:20;;;;;;;5.00;1.02;;;22.10;45.30;;;;;;7401273;19;19974;-72
2023/10/25 09:55:54;;;;;;;3.50;0.60;;;21.70;46.60;;;;;;7406455;19;20682;-72
2023/10/25 09:58:22;;;;;;;2.10;0.68;;;21.80;45.50;;;;;;7403846;19;19926;-72
2023/10/25 10:00:49;;;;;;;3.38;0.70;;;21.90;45.30;;;;;;7406389;19;20306;-72
2023/10/25 10:03:29;;;;;;;2.25;0.98;;;22.00;44.10;;;;;;7405345;19;19922;-73
2023/10/25 10:06:20;;;;;;;1.23;0.55;;;22.40;43.30;;;;;;7405352;19;19911;-72
2023/10/25 10:09:27;;;;;;;4.15;0.70;;;22.20;43.00;;;;;;7399667;19;19931;-71
2023/10/25 10:11:58;;;;;;;3.13;0.85;;;22.50;41.00;;;;;;7403267;19;20349;-73
2023/10/25 10:14:35;;;;;;;5.18;1.00;;;22.50;40.90;;;;;;7406580;19;19998;-73
2023/10/25 10:17:15;;;;;;;3.67;0.70;;;23.00;40.00;;;;;;7405488;19;19918;-71
2023/10/25 10:19:42;;;;;;;3.72;0.70;;;22.30;40.50;;;;;;7405489;19;19974;-72
2023/10/25 10:22:13;;;;;;;2.00;0.70;;;22.50;39.70;;;;;;7404876;19;20399;-72
2023/10/25 10:24:44;;;;;;;4.28;0.93;;;23.00;39.30;;;;;;7405420;19;19919;-71
2023/10/25 10:27:12;;;;;;;4.25;1.00;;;23.00;38.90;;;;;;7400806;19;19925;-71
2023/10/25 10:29:39;;;;;;;4.30;0.90;;;23.50;37.70;;;;;;7402948;19;19922;-71
2023/10/25 10:32:06;;;;;;;2.67;0.80;;;23.50;35.90;;;;;;7402078;19;19922;-72
2023/10/25 10:34:52;;;;;;;1.90;0.70;;;23.80;35.00;;;;;;7401286;19;20347;-71
2023/10/25 10:37:22;;;;;;;4.28;1.25;;;23.80;35.10;;;;;;7403073;19;19921;-70
2023/10/25 10:39:59;;;;;;;3.47;0.85;;;23.50;34.80;;;;;;7397282;19;19922;-70
2023/10/25 10:42:38;;;;;;;2.20;0.82;;;24.20;33.70;;;;;;7399583;19;19950;-70
2023/10/25 10:45:07;;;;;;;1.15;0.50;;;23.60;33.70;;;;;;7397157;19;20678;-73
2023/10/25 10:47:42;;;;;;;4.55;1.10;;;23.80;33.90;;;;;;7397241;19;19926;-70
2023/10/25 10:50:18;;;;;;;3.45;0.70;;;23.80;34.70;;;;;;7399719;19;20276;-71
2023/10/25 10:52:47;;;;;;;3.40;0.90;;;23.50;32.80;;;;;;7402611;19;19919;-72
2023/10/25 10:55:21;;;;;;;1.73;0.60;;;23.40;34.30;;;;;;7397915;19;19930;-71
2023/10/25 10:57:47;;;;;;;2.42;0.80;;;23.00;35.70;;;;;;7397568;19;19915;-72
2023/10/25 11:00:16;;;;;;;3.08;1.00;;;23.30;34.50;;;;;;7398509;19;19935;-71
2023/10/25 11:02:49;;;;;;;7.45;3.28;;;23.90;33.10;;;;;;7401402;19;19926;-70
2023/10/25 11:05:17;;;;;;;3.10;0.90;;;24.00;31.90;;;;;;7400784;19;19923;-70
2023/10/25 11:07:43;;;;;;;3.05;0.77;;;23.80;32.50;;;;;;7401324;19;19926;-71
2023/10/25 11:10:10;;;;;;;3.90;1.10;;;23.40;33.00;;;;;;7399565;19;20302;-71
2023/10/25 11:12:36;;;;;;;4.20;1.05;;;23.70;33.20;;;;;;7402381;19;20228;-70
2023/10/25 11:15:04;;;;;;;2.90;0.93;;;24.00;32.30;;;;;;7402114;19;20280;-70
2023/10/25 11:17:30;;;;;;;2.67;0.77;;;23.80;31.30;;;;;;7398454;19;19922;-70
2023/10/25 11:19:56;;;;;;;6.07;0.90;;;23.50;32.20;;;;;;7400849;19;19919;-70
2023/10/25 11:22:22;;;;;;;3.95;1.05;;;23.50;32.70;;;;;;7400389;19;19989;-70
2023/10/25 11:24:50;;;;;;;3.85;0.80;;;24.20;31.30;;;;;;7400235;19;20243;-70
2023/10/25 11:27:16;;;;;;;2.75;0.90;;;24.60;29.50;;;;;;7401237;19;19918;-71
2023/10/25 11:29:42;;;;;;;3.67;1.17;;;24.80;29.30;;;;;;7402663;19;19925;-72
2023/10/25 11:32:14;;;;;;;4.93;1.13;;;25.60;27.20;;;;;;7401287;19;19985;-70
2023/10/25 11:34:43;;;;;;;;;;;26.40;25.70;;;;;;7403694;19;20242;-70
2023/10/25 11:37:12;;;;;;;2.67;1.00;;;25.00;25.70;;;;;;7396773;19;19918;-71
2023/10/25 11:40:01;;;;;;;2.85;1.27;;;25.00;27.30;;;;;;7401755;19;19947;-71
2023/10/25 11:42:32;;;;;;;6.38;1.00;;;24.40;27.30;;;;;;7401814;19;20453;-71
2023/10/25 11:45:05;;;;;;;3.05;0.73;;;25.30;26.90;;;;;;7399218;19;19919;-71
2023/10/25 11:47:32;;;;;;;2.58;0.93;;;25.00;26.60;;;;;;7397900;19;20332;-71
2023/10/25 11:49:59;;;;;;;5.03;1.38;;;25.30;26.10;;;;;;7400903;19;19918;-71
2023/10/25 11:52:29;;;;;;;2.97;1.00;;;25.70;25.00;;;;;;7395810;19;19975;-71
2023/10/25 11:54:56;;;;;;;2.92;0.75;;;25.30;25.30;;;;;;7402814;19;19939;-72
2023/10/25 11:57:23;;;;;;;3.08;0.88;;;24.00;26.90;;;;;;7399988;19;19915;-71
2023/10/25 11:59:50;;;;;;;4.18;1.13;;;24.00;27.90;;;;;;7397852;19;20289;-70
2023/10/25 12:02:21;;;;;;;4.32;0.90;;;23.80;28.40;;;;;;7387830;19;20240;-71
2023/10/25 12:04:50;;;;;;;3.10;1.02;;;24.10;27.70;;;;;;7391627;19;19958;-72
2023/10/25 12:07:17;;;;;;;3.28;1.13;;;23.50;28.60;;;;;;7399776;19;19918;-72
2023/10/25 12:09:45;;;;;;;3.90;1.05;;;23.60;28.80;;;;;;7383930;19;20417;-72
2023/10/25 12:12:10;;;;;;;2.03;0.77;;;23.70;28.20;;;;;;7388967;19;19942;-71
2023/10/25 12:14:37;;;;;;;4.78;0.95;;;23.70;28.20;;;;;;7376029;19;20335;-72
2023/10/25 12:17:05;;;;;;;3.58;1.05;;;24.00;27.90;;;;;;7399221;19;19914;-70
2023/10/25 12:19:32;;;;;;;2.67;0.93;;;24.50;27.10;;;;;;7396713;19;19917;-71
2023/10/25 12:21:58;;;;;;;2.35;0.80;;;24.90;26.60;;;;;;7396784;19;19919;-71
2023/10/25 12:24:25;;;;;;;2.33;0.75;;;25.00;25.90;;;;;;7397962;19;20344;-71
2023/10/25 12:26:52;;;;;;;3.53;0.95;;;24.50;26.10;;;;;;7398541;19;19911;-72
2023/10/25 12:29:18;;;;;;;3.08;0.90;;;24.40;26.30;;;;;;7399532;19;19978;-72
2023/10/25 12:31:44;;;;;;;2.13;0.80;;;24.20;26.60;;;;;;7399958;19;19918;-73
2023/10/25 12:34:09;;;;;;;2.80;0.73;;;24.00;26.90;;;;;;7400053;19;19918;-72
2023/10/25 12:36:35;;;;;;;2.60;0.80;;;24.30;26.90;;;;;;7402910;19;19918;-72
2023/10/25 12:39:01;;;;;;;3.08;0.77;;;24.20;26.80;;;;;;7400360;19;20242;-73
2023/10/25 12:41:27;;;;;;;3.97;1.15;;;24.30;26.50;;;;;;7398896;19;19918;-71
2023/10/25 12:43:52;;;;;;;3.30;1.08;;;24.30;26.40;;;;;;7399346;19;19915;-72
2023/10/25 12:46:18;;;;;;;4.78;1.10;;;24.00;26.80;;;;;;7397782;19;19911;-72
2023/10/25 12:48:44;;;;;;;2.55;0.95;;;23.90;27.10;;;;;;7397567;19;19926;-72